Time;durP1;ratioP1;P1;durP2;ratioP2;P2;SDS_P1;SDS_P2;PMS_P1;PMS_P2;Temp;Humidity;BMP_temperature;BMP_pressure;BME280_temperature;BME280_humidity;BME280_pressure;Samples;Min_cycle;Max_cycle;Signal;HPM_P1;HPM_P2
2024/01/18 00:00:35;;;;;;;46.63;23.47;;;;;;;-144.30;76.77;86597.34;5072209;28;20277;-58
2024/01/18 00:03:03;;;;;;;40.27;21.70;;;;;;;-144.30;76.63;86591.38;5072281;28;20200;-58
2024/01/18 00:05:30;;;;;;;39.10;22.57;;;;;;;-144.30;76.39;86605.31;5072375;28;20287;-59
2024/01/18 00:07:57;;;;;;;39.93;22.13;;;;;;;-144.30;77.24;86569.50;5072202;28;20196;-59
2024/01/18 00:10:26;;;;;;;43.80;22.53;;;;;;;-144.30;77.46;86613.28;5072300;28;20196;-58
2024/01/18 00:12:54;;;;;;;39.60;22.53;;;;;;;-144.30;77.38;86617.25;5072203;28;20196;-58
2024/01/18 00:15:22;;;;;;;37.93;21.77;;;;;;;-144.30;78.04;86653.03;5071899;28;20196;-58
2024/01/18 00:17:49;;;;;;;38.03;22.97;;;;;;;-144.30;78.08;86615.25;5071900;28;20686;-58
2024/01/18 00:20:16;;;;;;;39.37;22.87;;;;;;;-144.30;77.23;86609.28;5071788;28;20726;-59
2024/01/18 00:22:43;;;;;;;41.43;23.40;;;;;;;-144.30;77.25;86577.47;5072312;28;20558;-58
2024/01/18 00:25:10;;;;;;;43.63;23.90;;;;;;;-144.30;77.31;86589.41;5071615;28;20200;-58
2024/01/18 00:27:37;;;;;;;45.67;24.17;;;;;;;-144.30;78.00;86605.31;5071704;28;20235;-58
2024/01/18 00:30:05;;;;;;;49.33;24.77;;;;;;;-144.30;77.75;86605.31;5071923;28;20205;-59
2024/01/18 00:32:33;;;;;;;46.20;25.23;;;;;;;-144.30;77.65;86579.47;5071800;28;20196;-58
2024/01/18 00:35:00;;;;;;;49.93;24.20;;;;;;;-144.30;76.95;86603.31;5071649;28;20203;-59
2024/01/18 00:37:27;;;;;;;45.77;25.50;;;;;;;-144.30;77.31;86637.13;5071210;28;20653;-59
2024/01/18 00:39:54;;;;;;;45.43;25.07;;;;;;;-144.30;77.04;86587.41;5071562;28;20720;-58
2024/01/18 00:42:21;;;;;;;43.60;24.67;;;;;;;-144.30;77.90;86587.41;5071399;28;20231;-57
2024/01/18 00:44:47;;;;;;;45.40;25.47;;;;;;;-144.30;78.79;86601.34;5071417;28;20206;-57
2024/01/18 00:47:14;;;;;;;50.57;27.17;;;;;;;-144.30;78.69;86585.44;5071395;28;20197;-58
2024/01/18 00:49:43;;;;;;;45.97;25.50;;;;;;;-144.30;78.47;86569.50;5071562;28;20192;-58
2024/01/18 00:52:10;;;;;;;49.43;25.87;;;;;;;-144.30;78.23;86619.22;5071129;28;20200;-58
2024/01/18 00:54:37;;;;;;;51.10;25.20;;;;;;;-144.30;78.29;86573.50;5071549;28;20608;-58
2024/01/18 00:57:04;;;;;;;78.20;27.77;;;;;;;-144.30;78.04;86619.22;5071272;28;20200;-58
2024/01/18 00:59:31;;;;;;;69.53;28.60;;;;;;;-144.30;77.56;86611.28;5071225;28;20224;-58
2024/01/18 01:01:58;;;;;;;72.87;28.53;;;;;;;-144.30;76.68;86581.44;5070786;28;20299;-59
2024/01/18 01:04:24;;;;;;;60.53;26.33;;;;;;;-144.30;76.63;86577.47;5071210;28;20196;-58
2024/01/18 01:06:53;;;;;;;60.13;25.97;;;;;;;-144.30;76.54;86553.59;5070965;28;20235;-59
2024/01/18 01:09:20;;;;;;;49.00;25.27;;;;;;;-144.30;75.79;86599.34;5071067;28;20192;-58
2024/01/18 01:11:47;;;;;;;61.57;26.17;;;;;;;-144.30;75.57;86533.72;5071039;28;20288;-59
2024/01/18 01:14:14;;;;;;;47.43;26.03;;;;;;;-144.30;75.23;86573.50;5070808;28;20595;-59
2024/01/18 01:16:41;;;;;;;46.73;25.57;;;;;;;-144.30;75.16;86577.47;5070898;28;20296;-59
2024/01/18 01:19:07;;;;;;;45.97;24.83;;;;;;;-144.30;75.57;86593.38;5070900;28;20225;-58
2024/01/18 01:21:34;;;;;;;57.00;25.87;;;;;;;-144.30;75.34;86569.50;5070973;28;20227;-58
2024/01/18 01:24:03;;;;;;;48.80;24.97;;;;;;;-144.30;76.35;86621.22;5057508;28;20192;-59
2024/01/18 01:26:30;;;;;;;48.00;24.90;;;;;;;-144.30;76.27;86599.34;5050554;28;20259;-58
2024/01/18 01:28:57;;;;;;;43.23;24.03;;;;;;;-144.30;76.56;86555.59;5050554;28;20297;-59
2024/01/18 01:31:24;;;;;;;45.10;24.70;;;;;;;-144.30;76.85;86553.59;5050639;28;20207;-59
2024/01/18 01:33:51;;;;;;;42.60;24.13;;;;;;;-144.30;76.45;86567.53;5050351;28;20200;-60
2024/01/18 01:36:18;;;;;;;42.27;23.07;;;;;;;-144.30;76.79;86569.50;5050329;28;20208;-58
2024/01/18 01:38:45;;;;;;;44.33;24.10;;;;;;;-144.30;77.09;86559.56;5050451;28;20227;-59
2024/01/18 01:41:13;;;;;;;40.10;22.73;;;;;;;-144.30;77.12;86547.66;5050055;28;20641;-58
2024/01/18 01:43:58;;;;;;;39.13;22.83;;;;;;;-144.30;77.43;86577.47;5050239;28;20200;-59
2024/01/18 01:46:25;;;;;;;37.97;21.63;;;;;;;-144.30;77.32;86581.44;5050339;28;20283;-58
2024/01/18 01:48:53;;;;;;;41.70;23.47;;;;;;;-144.30;77.15;86569.50;5049933;28;20206;-59
2024/01/18 01:51:20;;;;;;;43.70;23.00;;;;;;;-144.30;76.75;86581.44;5049825;28;20224;-59
2024/01/18 01:53:47;;;;;;;39.67;21.87;;;;;;;-144.30;77.03;86587.41;5050143;28;20204;-57
2024/01/18 01:56:16;;;;;;;38.10;22.20;;;;;;;-144.30;77.52;86581.44;5049808;28;20205;-58
2024/01/18 01:58:43;;;;;;;41.30;22.10;;;;;;;-144.30;77.89;86593.38;5050001;28;20192;-59
2024/01/18 02:01:10;;;;;;;34.20;21.00;;;;;;;-144.30;77.94;86591.38;5049861;28;20613;-58
2024/01/18 02:03:37;;;;;;;42.23;22.47;;;;;;;-144.30;78.08;86577.47;5050181;28;20193;-59
2024/01/18 02:06:04;;;;;;;43.97;23.57;;;;;;;-144.30;78.21;86509.84;5049951;28;20203;-58
2024/01/18 02:08:31;;;;;;;42.97;22.53;;;;;;;-144.30;78.55;86601.34;5049842;28;20200;-58
2024/01/18 02:10:59;;;;;;;38.17;22.30;;;;;;;-144.30;78.76;86595.38;5049743;28;20193;-58
2024/01/18 02:13:28;;;;;;;42.70;22.37;;;;;;;-144.30;78.48;86368.66;5049875;28;20196;-59
2024/01/18 02:15:55;;;;;;;38.80;22.10;;;;;;;-144.30;79.00;86583.44;5049926;28;20590;-59
2024/01/18 02:18:21;;;;;;;36.80;22.17;;;;;;;-144.30;78.99;86593.38;5049688;28;20201;-59
2024/01/18 02:20:48;;;;;;;35.27;22.07;;;;;;;-144.30;79.42;86613.28;5049770;28;20224;-58
2024/01/18 02:23:16;;;;;;;41.87;22.23;;;;;;;-144.30;79.85;86571.50;5049472;28;20197;-58
2024/01/18 02:25:44;;;;;;;37.13;22.20;;;;;;;-144.30;79.78;86601.34;5049939;28;20207;-59
2024/01/18 02:28:12;;;;;;;37.00;21.33;;;;;;;-144.30;79.58;86569.50;5049482;28;20224;-58
2024/01/18 02:30:39;;;;;;;45.37;23.27;;;;;;;-144.30;79.34;86601.34;5049653;28;20200;-58
2024/01/18 02:33:05;;;;;;;40.43;21.87;;;;;;;-144.30;79.04;86597.34;5049156;28;20192;-58
2024/01/18 02:35:33;;;;;;;40.03;21.47;;;;;;;-144.30;78.79;86531.72;5049315;28;20199;-60
2024/01/18 02:38:00;;;;;;;37.03;21.47;;;;;;;-144.30;78.52;86611.28;5049319;28;20206;-60
2024/01/18 02:40:27;;;;;;;38.40;20.70;;;;;;;-144.30;79.31;86597.34;5049587;28;20247;-58
2024/01/18 02:42:55;;;;;;;36.27;20.50;;;;;;;-144.30;79.15;86591.38;5049406;28;20192;-58
2024/01/18 02:45:23;;;;;;;43.83;22.97;;;;;;;-144.30;81.20;86549.63;5049460;28;20200;-58
2024/01/18 02:47:50;;;;;;;38.07;22.17;;;;;;;-144.30;81.60;86621.22;5049315;28;20250;-57
2024/01/18 02:50:17;;;;;;;35.60;22.13;;;;;;;-144.30;81.01;86575.47;5049126;28;20203;-59
2024/01/18 02:52:43;;;;;;;40.17;22.63;;;;;;;-144.30;80.60;86601.34;5049752;28;20198;-57
2024/01/18 02:55:10;;;;;;;37.43;21.97;;;;;;;-144.30;80.69;86593.38;5049534;28;20205;-58
2024/01/18 02:57:37;;;;;;;35.10;20.77;;;;;;;-144.30;80.79;86567.53;5049254;28;20197;-58
2024/01/18 03:00:07;;;;;;;44.60;22.47;;;;;;;-144.30;81.09;86635.13;5049130;28;20221;-58
2024/01/18 03:02:34;;;;;;;39.57;21.10;;;;;;;-144.30;80.94;86599.34;5052986;28;20197;-59
2024/01/18 03:05:01;;;;;;;38.17;21.63;;;;;;;-144.30;80.49;86601.34;5052939;28;20204;-58
2024/01/18 03:07:28;;;;;;;31.70;19.07;;;;;;;-144.30;80.47;86593.38;5053131;28;20238;-58
2024/01/18 03:09:55;;;;;;;35.33;19.20;;;;;;;-144.30;80.27;86633.16;5053514;28;20635;-58
2024/01/18 03:12:22;;;;;;;33.90;20.23;;;;;;;-144.30;80.06;86587.41;5053202;28;20612;-58
2024/01/18 03:14:49;;;;;;;32.30;18.60;;;;;;;-144.30;79.67;86609.28;5053199;28;20200;-58
2024/01/18 03:17:17;;;;;;;35.00;18.80;;;;;;;-144.30;79.59;86593.38;5052992;28;20207;-58
2024/01/18 03:19:44;;;;;;;34.73;19.50;;;;;;;-144.30;80.31;86597.34;5053164;28;20262;-59
2024/01/18 03:22:11;;;;;;;33.53;19.90;;;;;;;-144.30;80.97;86499.91;5052894;28;20200;-58
2024/01/18 03:24:38;;;;;;;35.27;19.17;;;;;;;-144.30;80.60;86587.41;5053081;28;20204;-59
2024/01/18 03:27:05;;;;;;;32.47;18.50;;;;;;;-144.30;80.19;86587.41;5052824;28;20232;-58
2024/01/18 03:29:32;;;;;;;35.33;19.47;;;;;;;-144.30;78.94;86581.44;5053059;28;20203;-58
2024/01/18 03:31:59;;;;;;;31.33;18.50;;;;;;;-144.30;78.67;86507.88;5052715;28;20201;-59
2024/01/18 03:34:27;;;;;;;35.03;19.87;;;;;;;-144.30;78.18;86575.47;5052884;28;20207;-58
2024/01/18 03:36:54;;;;;;;30.87;19.23;;;;;;;-144.30;78.40;86573.50;5052701;28;20204;-58
2024/01/18 03:39:21;;;;;;;30.60;19.10;;;;;;;-144.30;78.57;86541.69;5052535;28;20202;-59
2024/01/18 03:41:48;;;;;;;29.10;18.03;;;;;;;-144.30;79.18;86589.41;5053035;28;20233;-59
2024/01/18 03:44:15;;;;;;;31.33;19.07;;;;;;;-144.30;79.08;86615.25;5052664;28;20194;-58
2024/01/18 03:46:42;;;;;;;33.83;19.77;;;;;;;-144.30;79.29;86593.38;5052570;28;20196;-58
2024/01/18 03:49:08;;;;;;;31.47;19.60;;;;;;;-144.30;79.24;86595.38;5052638;28;20204;-60
2024/01/18 03:51:37;;;;;;;33.63;19.57;;;;;;;-144.30;80.00;86545.66;5052875;28;20671;-59
2024/01/18 03:54:04;;;;;;;37.57;20.67;;;;;;;-144.30;80.03;86547.66;5052524;28;20197;-58
2024/01/18 03:56:30;;;;;;;34.77;19.87;;;;;;;-144.30;79.63;86593.38;5052559;28;20214;-58
2024/01/18 03:58:57;;;;;;;34.27;20.10;;;;;;;-144.30;79.90;86583.44;5052241;28;20601;-58
2024/01/18 04:01:24;;;;;;;35.43;20.20;;;;;;;-144.30;79.33;86581.44;5052306;28;20220;-58
2024/01/18 04:03:51;;;;;;;29.77;19.47;;;;;;;-144.30;79.17;86575.47;5052161;28;20204;-59
2024/01/18 04:06:18;;;;;;;29.73;18.70;;;;;;;-144.30;79.32;86575.47;5052300;28;20704;-58
2024/01/18 04:08:46;;;;;;;32.43;18.87;;;;;;;-144.30;79.06;86565.53;5052390;28;20196;-58
2024/01/18 04:11:13;;;;;;;30.20;19.07;;;;;;;-144.30;79.25;86581.44;5051907;28;20696;-58
2024/01/18 04:13:40;;;;;;;32.90;19.87;;;;;;;-144.30;79.20;86545.66;5068667;28;20203;-58
2024/01/18 04:16:08;;;;;;;39.20;19.83;;;;;;;-144.30;79.74;86587.41;5071420;28;20202;-58
2024/01/18 04:18:35;;;;;;;34.27;19.50;;;;;;;-144.30;80.01;86533.72;5071441;28;20200;-58
2024/01/18 04:21:02;;;;;;;35.23;20.23;;;;;;;-144.30;79.65;86863.84;5071213;28;20311;-58
2024/01/18 04:23:29;;;;;;;32.53;19.90;;;;;;;-144.30;78.76;86577.47;5071542;28;20583;-59
2024/01/18 04:25:57;;;;;;;36.43;19.87;;;;;;;-144.30;80.20;86545.66;5071713;28;20200;-59
2024/01/18 04:28:24;;;;;;;32.17;20.63;;;;;;;-144.30;80.85;86549.63;5070865;28;20228;-57
2024/01/18 04:30:51;;;;;;;31.57;20.40;;;;;;;-144.30;81.23;86583.44;5071390;28;20624;-58
2024/01/18 04:33:18;;;;;;;33.13;20.10;;;;;;;-144.30;82.07;86585.44;5070930;28;20222;-59
2024/01/18 04:35:45;;;;;;;35.53;20.53;;;;;;;-144.30;82.51;86583.44;5068929;28;20196;-58
2024/01/18 04:38:13;;;;;;;32.40;19.60;;;;;;;-144.30;82.53;86567.53;5071028;28;20279;-59
2024/01/18 04:40:40;;;;;;;33.13;19.67;;;;;;;-144.30;82.37;86581.44;5070864;28;20212;-58
2024/01/18 04:43:08;;;;;;;29.30;19.17;;;;;;;-144.30;82.30;86601.34;5071645;28;20192;-58
2024/01/18 04:45:35;;;;;;;28.33;18.47;;;;;;;-144.30;81.84;86547.66;5071755;28;20203;-59
2024/01/18 04:48:03;;;;;;;31.50;18.90;;;;;;;-144.30;82.17;86583.44;5070842;28;20601;-58
2024/01/18 04:50:30;;;;;;;28.77;18.50;;;;;;;-144.30;82.03;86599.34;5071351;28;20283;-57
2024/01/18 04:52:57;;;;;;;28.70;18.67;;;;;;;-144.30;82.01;86577.47;5071264;28;20211;-59
2024/01/18 04:55:24;;;;;;;28.00;17.37;;;;;;;-144.30;82.31;86585.44;5071211;28;20207;-59
2024/01/18 04:57:51;;;;;;;27.67;18.30;;;;;;;-144.30;82.21;86615.25;5071401;28;20620;-58
2024/01/18 05:00:19;;;;;;;32.03;18.87;;;;;;;-144.30;82.70;86545.66;5071079;28;20230;-59
2024/01/18 05:02:47;;;;;;;28.80;17.93;;;;;;;-144.30;83.02;86571.50;5056706;28;20200;-59
2024/01/18 05:05:14;;;;;;;26.23;17.23;;;;;;;-144.30;83.03;86555.59;5070062;28;20191;-59
2024/01/18 05:07:42;;;;;;;28.80;17.17;;;;;;;-144.30;83.37;86567.53;5070461;28;20203;-58
2024/01/18 05:10:10;;;;;;;30.67;16.43;;;;;;;-144.30;83.15;86581.44;5070569;28;20188;-60
2024/01/18 05:12:37;;;;;;;27.93;17.07;;;;;;;-144.30;82.78;86605.31;5070608;28;20196;-58
2024/01/18 05:15:06;;;;;;;25.13;15.13;;;;;;;-144.30;82.59;86559.56;5070642;28;20188;-58
2024/01/18 05:17:35;;;;;;;28.10;18.80;;;;;;;-144.30;82.27;86565.53;5066993;28;21017;-58
2024/01/18 05:20:03;;;;;;;25.40;16.53;;;;;;;-144.30;81.31;86545.66;5067731;28;20204;-59
2024/01/18 05:22:31;;;;;;;23.23;15.97;;;;;;;-144.30;81.01;86575.47;5070467;28;20196;-60
2024/01/18 05:24:59;;;;;;;24.00;15.53;;;;;;;-144.30;82.04;86549.63;5069203;28;20250;-58
2024/01/18 05:27:27;;;;;;;24.43;16.07;;;;;;;-144.30;81.73;87637.56;5069969;28;20673;-59
2024/01/18 05:29:54;;;;;;;23.07;16.30;;;;;;;-144.30;81.04;86551.63;5070115;28;20200;-58
2024/01/18 05:32:21;;;;;;;23.43;16.33;;;;;;;-144.30;81.15;86581.44;5070744;28;20587;-59
2024/01/18 05:34:50;;;;;;;27.97;17.27;;;;;;;-144.30;81.31;86545.66;5068026;28;20204;-59
2024/01/18 05:37:17;;;;;;;29.87;16.80;;;;;;;-144.30;81.72;86583.44;5070706;28;20211;-58
2024/01/18 05:39:44;;;;;;;26.93;16.67;;;;;;;-144.30;82.01;86549.63;5064144;28;20204;-58
2024/01/18 05:42:11;;;;;;;27.63;17.43;;;;;;;-144.30;81.84;86589.41;5063320;28;20227;-59
2024/01/18 05:44:38;;;;;;;25.63;15.90;;;;;;;-144.30;82.05;86573.50;5066699;28;20204;-58
2024/01/18 05:47:05;;;;;;;31.53;17.37;;;;;;;-144.30;82.15;86571.50;5061212;28;20206;-59
2024/01/18 05:49:32;;;;;;;26.00;16.23;;;;;;;-144.30;81.96;86617.25;5069781;28;20207;-61
2024/01/18 05:52:00;;;;;;;29.77;17.40;;;;;;;-144.30;82.15;86491.97;5067579;28;20560;-59
2024/01/18 05:54:27;;;;;;;26.40;16.27;;;;;;;-144.30;82.20;86581.44;5059803;28;20238;-59
2024/01/18 05:56:54;;;;;;;24.07;16.27;;;;;;;-144.30;81.52;86571.50;5063887;28;20212;-58
2024/01/18 05:59:21;;;;;;;28.77;16.70;;;;;;;-144.30;81.64;86468.09;5049927;28;20207;-59
2024/01/18 06:01:48;;;;;;;27.57;17.60;;;;;;;-144.30;82.26;86623.22;5049861;28;20224;-59
2024/01/18 06:04:15;;;;;;;26.87;16.77;;;;;;;-144.30;82.61;86589.41;5049654;28;20196;-58
2024/01/18 06:06:42;;;;;;;27.83;16.60;;;;;;;-144.30;81.91;86587.41;5049756;28;20197;-59
2024/01/18 06:09:13;;;;;;;26.93;17.67;;;;;;;-144.30;81.96;86537.69;5049080;28;20199;-59
2024/01/18 06:11:40;;;;;;;28.77;17.40;;;;;;;-144.30;81.72;86565.53;5049726;28;20192;-58
2024/01/18 06:14:07;;;;;;;32.57;18.50;;;;;;;-144.30;81.41;86561.56;5049780;28;20207;-58
2024/01/18 06:16:34;;;;;;;28.87;17.53;;;;;;;-144.30;81.52;86575.47;5052479;28;20236;-59
2024/01/18 06:19:01;;;;;;;30.07;17.33;;;;;;;-144.30;80.87;86541.69;5089340;28;20199;-58
2024/01/18 06:21:28;;;;;;;34.00;17.60;;;;;;;-144.30;80.49;86450.19;5088785;28;20218;-58
2024/01/18 06:23:55;;;;;;;28.80;17.90;;;;;;;-144.30;80.48;86585.44;5090009;28;20202;-59
2024/01/18 06:26:23;;;;;;;27.80;16.53;;;;;;;-144.30;80.11;86557.59;5089698;28;20195;-60
2024/01/18 06:28:50;;;;;;;27.83;16.93;;;;;;;-144.30;79.89;86575.47;5089869;28;20206;-60
2024/01/18 06:31:19;;;;;;;26.47;16.60;;;;;;;-144.30;80.43;86609.28;5089755;28;20195;-59
2024/01/18 06:33:46;;;;;;;28.23;16.90;;;;;;;-144.30;80.61;86573.50;5089807;28;20195;-59
2024/01/18 06:36:14;;;;;;;29.07;17.57;;;;;;;-144.30;80.51;86549.63;5089233;28;20198;-58
2024/01/18 06:38:41;;;;;;;28.13;17.63;;;;;;;-144.30;80.42;86539.69;5089917;28;20695;-60
2024/01/18 06:41:11;;;;;;;28.93;17.87;;;;;;;-144.30;81.57;86462.13;5089448;28;20221;-59
2024/01/18 06:43:39;;;;;;;29.50;17.93;;;;;;;-144.30;81.33;86551.63;5089768;28;20191;-58
2024/01/18 06:46:15;;;;;;;30.37;18.10;;;;;;;-144.30;81.51;86581.44;5089623;28;20210;-58
2024/01/18 06:48:43;;;;;;;29.23;17.20;;;;;;;-144.30;81.56;86537.69;5089646;28;20195;-59
2024/01/18 06:51:10;;;;;;;27.93;17.97;;;;;;;-144.30;81.18;86541.69;5089737;28;20195;-58
2024/01/18 06:53:37;;;;;;;29.23;16.87;;;;;;;-144.30;81.40;86565.53;5089818;28;20203;-59
2024/01/18 06:56:04;;;;;;;30.13;17.80;;;;;;;-144.30;80.69;86557.59;5089540;28;20199;-59
2024/01/18 06:58:31;;;;;;;30.50;17.37;;;;;;;-144.30;80.51;86553.59;5089783;28;20689;-59
2024/01/18 07:00:59;;;;;;;35.97;19.63;;;;;;;-144.30;80.28;86537.69;5089731;28;20698;-59
2024/01/18 07:03:30;;;;;;;37.33;20.43;;;;;;;-144.30;79.97;86531.72;5089764;28;20199;-60
2024/01/18 07:05:57;;;;;;;36.20;19.43;;;;;;;-144.30;79.80;86529.75;5089531;28;20191;-59
2024/01/18 07:08:25;;;;;;;32.83;19.10;;;;;;;-144.30;80.11;86525.75;5089700;28;20286;-58
2024/01/18 07:10:52;;;;;;;36.63;19.53;;;;;;;-144.30;80.46;86541.69;5089411;28;20195;-59
2024/01/18 07:13:19;;;;;;;41.80;19.57;;;;;;;-144.30;80.27;86565.53;5089241;28;20213;-58
2024/01/18 07:15:45;;;;;;;34.50;18.73;;;;;;;-144.30;79.61;86587.41;5089539;28;20222;-61
2024/01/18 07:18:14;;;;;;;35.67;20.17;;;;;;;-144.30;79.56;86561.56;5089493;28;20199;-59
2024/01/18 07:20:41;;;;;;;35.97;20.67;;;;;;;-144.30;79.75;86557.59;5089174;28;20210;-60
2024/01/18 07:23:08;;;;;;;38.80;21.07;;;;;;;-144.30;79.92;86501.91;5089306;28;20202;-61
2024/01/18 07:25:34;;;;;;;36.83;21.47;;;;;;;-144.30;79.48;86517.81;5089413;28;20192;-59
2024/01/18 07:28:01;;;;;;;39.70;22.33;;;;;;;-144.30;79.13;86539.69;5089344;28;20234;-59
2024/01/18 07:30:28;;;;;;;36.20;21.63;;;;;;;-144.30;78.90;86513.84;5089603;28;20686;-59
2024/01/18 07:32:55;;;;;;;38.47;22.53;;;;;;;-144.30;78.80;86567.53;5074832;28;20695;-59
2024/01/18 07:35:23;;;;;;;42.03;20.93;;;;;;;-144.30;79.17;86545.66;5057390;28;20227;-60
2024/01/18 07:37:50;;;;;;;39.77;22.70;;;;;;;-144.30;78.74;86559.56;5060107;28;20207;-60
2024/01/18 07:40:17;;;;;;;35.83;22.50;;;;;;;-144.30;78.84;86553.59;5054632;28;20203;-59
2024/01/18 07:42:44;;;;;;;39.63;23.10;;;;;;;-144.30;79.36;86541.69;5068485;28;20228;-59
2024/01/18 07:45:14;;;;;;;37.47;22.30;;;;;;;-144.30;78.88;86559.56;5068657;28;20694;-59
2024/01/18 07:47:41;;;;;;;40.83;22.43;;;;;;;-144.30;78.27;86505.88;5056578;28;20315;-59
2024/01/18 07:50:09;;;;;;;41.33;23.20;;;;;;;-144.30;78.52;86390.53;5072082;28;20187;-60
2024/01/18 07:52:38;;;;;;;40.17;23.30;;;;;;;-144.30;78.45;86484.00;5052409;28;20201;-59
2024/01/18 07:55:07;;;;;;;42.50;23.43;;;;;;;-144.30;78.51;86529.75;5052196;28;20196;-59
2024/01/18 07:57:34;;;;;;;35.90;23.67;;;;;;;-144.30;78.04;86489.97;5052566;28;20247;-59
2024/01/18 08:00:01;;;;;;;41.27;23.43;;;;;;;-144.30;78.38;86517.81;5052399;28;20684;-57
2024/01/18 08:02:28;;;;;;;37.63;20.93;;;;;;;-144.30;77.27;86505.88;5081163;28;20326;-59
2024/01/18 08:04:55;;;;;;;45.87;22.80;;;;;;;-144.30;77.72;86519.81;5090963;28;20213;-60
2024/01/18 08:07:20;;;;;;;41.23;23.63;;;;;;;-144.30;77.23;86515.81;5091621;28;20207;-59
2024/01/18 08:09:49;;;;;;;41.50;23.20;;;;;;;-144.30;77.02;86482.03;5092448;28;20199;-59
2024/01/18 08:12:15;;;;;;;45.87;23.37;;;;;;;-144.30;76.76;86491.97;5092352;28;20191;-59
2024/01/18 08:14:44;;;;;;;38.73;23.20;;;;;;;-144.30;76.88;86537.69;5092372;28;20202;-60
2024/01/18 08:17:11;;;;;;;37.27;22.97;;;;;;;-144.30;77.12;86517.81;5092133;28;20203;-59
2024/01/18 08:19:40;;;;;;;40.53;22.23;;;;;;;-144.30;77.86;86511.84;5092309;28;20581;-59
2024/01/18 08:22:08;;;;;;;39.50;23.13;;;;;;;-144.30;77.81;86501.91;5092293;28;20599;-60
2024/01/18 08:24:35;;;;;;;36.83;22.43;;;;;;;-144.30;78.13;86533.72;5092445;28;20678;-60
2024/01/18 08:27:05;;;;;;;40.13;24.73;;;;;;;-144.30;77.58;86569.50;5091916;28;20279;-60
2024/01/18 08:29:32;;;;;;;42.60;24.70;;;;;;;-144.30;77.95;86507.88;5092324;28;20683;-60
2024/01/18 08:32:00;;;;;;;46.33;25.30;;;;;;;-144.30;77.48;86484.00;5091958;28;20195;-61
2024/01/18 08:34:27;;;;;;;39.73;24.13;;;;;;;-144.30;76.55;86487.97;5092005;28;20199;-61
2024/01/18 08:36:54;;;;;;;34.57;22.03;;;;;;;-144.30;77.21;86480.03;5077318;28;20200;-61
2024/01/18 08:39:20;;;;;;;36.23;22.53;;;;;;;-144.30;77.21;86497.94;5060750;28;20204;-59
2024/01/18 08:41:47;;;;;;;38.33;22.40;;;;;;;-144.30;77.23;86513.84;5061579;28;20550;-62
2024/01/18 08:44:16;;;;;;;38.27;20.27;;;;;;;-144.30;77.27;86458.16;5057783;28;20208;-61
2024/01/18 08:46:43;;;;;;;36.50;20.90;;;;;;;-144.30;76.76;86499.91;5070880;28;20287;-61
2024/01/18 08:49:09;;;;;;;37.03;20.87;;;;;;;-144.30;76.94;86480.03;5091481;28;20206;-61
2024/01/18 08:51:36;;;;;;;35.40;21.60;;;;;;;-144.30;76.44;86470.09;5091746;28;20290;-60
2024/01/18 08:54:03;;;;;;;34.77;21.40;;;;;;;-144.30;76.34;86489.97;5091630;28;20195;-61
2024/01/18 08:56:30;;;;;;;43.07;24.50;;;;;;;-144.30;76.75;86489.97;5091557;28;20248;-61
2024/01/18 08:58:57;;;;;;;39.00;23.50;;;;;;;-144.30;76.29;86501.91;5091181;28;20685;-60
2024/01/18 09:01:25;;;;;;;41.13;23.03;;;;;;;-144.30;76.75;86509.84;5091173;28;20203;-61
2024/01/18 09:03:52;;;;;;;42.90;23.33;;;;;;;-144.30;75.37;86462.13;5091467;28;20203;-62
2024/01/18 09:06:19;;;;;;;43.63;23.73;;;;;;;-144.30;75.57;86499.91;5091172;28;20205;-61
2024/01/18 09:08:46;;;;;;;40.50;23.23;;;;;;;-144.30;77.12;86543.66;5087826;28;20643;-61
2024/01/18 09:11:13;;;;;;;42.50;22.67;;;;;;;-144.30;76.75;86501.91;5070848;28;20287;-60
2024/01/18 09:13:42;;;;;;;41.73;22.40;;;;;;;-144.30;75.81;86503.91;5071436;28;20201;-61
2024/01/18 09:16:09;;;;;;;33.73;21.47;;;;;;;-144.30;76.54;86161.88;5070910;28;20204;-62
2024/01/18 09:18:38;;;;;;;45.23;21.60;;;;;;;-144.30;76.35;86497.94;5071161;28;20199;-61
2024/01/18 09:21:05;;;;;;;37.13;20.93;;;;;;;-144.30;77.15;86493.94;5071101;28;20192;-59
2024/01/18 09:23:32;;;;;;;35.93;20.10;;;;;;;-144.30;76.47;86476.06;5070827;28;20555;-60
2024/01/18 09:26:00;;;;;;;38.13;21.20;;;;;;;-144.30;75.79;86438.28;5070743;28;20198;-60
2024/01/18 09:28:27;;;;;;;37.00;20.83;;;;;;;-144.30;76.22;86474.06;5070498;28;20322;-61
2024/01/18 09:30:54;;;;;;;41.33;21.73;;;;;;;-144.30;75.92;86979.19;5070676;28;20196;-61
2024/01/18 09:33:21;;;;;;;43.53;24.87;;;;;;;-144.30;75.67;86468.09;5070438;28;20207;-60
2024/01/18 09:35:51;;;;;;;41.80;22.97;;;;;;;-144.30;75.32;86474.06;5070687;28;20216;-60
2024/01/18 09:38:19;;;;;;;39.70;22.97;;;;;;;-144.30;75.06;86470.09;5070374;28;20241;-61
2024/01/18 09:40:46;;;;;;;44.93;24.07;;;;;;;-144.30;75.01;86493.94;5070427;28;20223;-61
2024/01/18 09:43:16;;;;;;;40.03;23.57;;;;;;;-144.30;75.04;86491.97;5070415;28;20220;-61
2024/01/18 09:45:48;;;;;;;47.47;24.80;;;;;;;-144.30;74.46;86464.13;5070633;28;20207;-61
2024/01/18 09:48:15;;;;;;;51.93;27.27;;;;;;;-144.30;74.13;86430.31;5070364;28;20584;-62
2024/01/18 09:50:44;;;;;;;48.07;27.10;;;;;;;-144.30;74.87;86458.16;5070425;28;20200;-61
2024/01/18 09:53:13;;;;;;;46.87;26.93;;;;;;;-144.30;75.48;86450.19;5070224;28;20557;-61
2024/01/18 09:55:40;;;;;;;51.13;28.13;;;;;;;-144.30;75.56;86482.03;5070621;28;20203;-61
2024/01/18 09:58:12;;;;;;;50.33;28.80;;;;;;;-144.30;75.31;86456.16;5070062;28;20291;-62
2024/01/18 10:00:43;;;;;;;52.57;29.27;;;;;;;-144.30;75.96;86482.03;5070350;28;20527;-60
2024/01/18 10:03:10;;;;;;;49.50;29.03;;;;;;;-144.30;76.34;86478.03;5070055;28;20226;-62
2024/01/18 10:05:37;;;;;;;51.90;27.77;;;;;;;-144.30;75.59;86486.00;5070173;28;20203;-60
2024/01/18 10:08:05;;;;;;;57.67;27.90;;;;;;;-144.30;76.25;86438.28;5070005;28;20196;-61
2024/01/18 10:10:33;;;;;;;52.13;27.60;;;;;;;-144.30;76.00;86464.13;5069425;28;20198;-60
2024/01/18 10:13:02;;;;;;;59.27;27.97;;;;;;;-144.30;76.00;86480.03;5069979;28;20188;-60
2024/01/18 10:15:35;;;;;;;45.57;26.83;;;;;;;-144.30;75.88;86450.19;5070000;28;20200;-60
2024/01/18 10:18:05;;;;;;;49.27;26.97;;;;;;;-144.30;75.37;86434.28;5069975;28;20200;-61
2024/01/18 10:20:33;;;;;;;57.03;27.97;;;;;;;-144.30;75.14;86414.41;5069772;28;20678;-62
2024/01/18 10:23:00;;;;;;;54.57;26.77;;;;;;;-144.30;74.75;86476.06;5069802;28;20307;-61
2024/01/18 10:25:28;;;;;;;44.07;24.17;;;;;;;-144.30;74.11;86438.28;5069884;28;20661;-62
2024/01/18 10:27:58;;;;;;;46.03;25.27;;;;;;;-144.30;73.95;86436.28;5069707;28;20235;-61
2024/01/18 10:30:25;;;;;;;41.07;23.67;;;;;;;-144.30;73.45;86418.38;5069622;28;20200;-61
2024/01/18 10:32:53;;;;;;;37.40;23.43;;;;;;;-144.30;73.67;86450.19;5069582;28;20287;-62
2024/01/18 10:35:23;;;;;;;44.33;25.23;;;;;;;-144.30;73.13;86464.13;5069155;28;20775;-62
2024/01/18 10:38:00;;;;;;;45.00;24.63;;;;;;;-144.30;72.15;86396.50;5059131;28;20673;-62
2024/01/18 10:40:28;;;;;;;44.97;25.93;;;;;;;-144.30;71.93;86396.50;5061529;28;20206;-62
2024/01/18 10:42:56;;;;;;;43.60;25.87;;;;;;;-144.30;72.50;86382.59;5050872;28;20331;-63
2024/01/18 10:45:23;;;;;;;51.27;25.83;;;;;;;-144.30;72.18;86394.53;5066479;28;20195;-63
2024/01/18 10:47:50;;;;;;;48.50;26.50;;;;;;;-144.30;71.94;86408.44;5068937;28;20203;-62
2024/01/18 10:50:17;;;;;;;46.80;27.03;;;;;;;-144.30;72.14;86370.66;5060399;28;20200;-61
2024/01/18 10:52:46;;;;;;;57.20;31.90;;;;;;;-144.30;71.69;86388.56;5068702;28;20637;-62
2024/01/18 10:55:13;;;;;;;63.93;32.83;;;;;;;-144.30;71.61;86368.66;5090228;28;20578;-62
2024/01/18 10:57:41;;;;;;;48.77;28.37;;;;;;;-144.30;71.81;86374.63;5089674;28;20195;-63
2024/01/18 11:00:15;;;;;;;44.17;27.90;;;;;;;-144.30;71.53;86370.66;5090010;28;20590;-62
2024/01/18 11:02:44;;;;;;;51.57;26.67;;;;;;;-144.30;70.40;86344.81;5089765;28;20219;-63